Time;durP1;ratioP1;P1;durP2;ratioP2;P2;SDS_P1;SDS_P2;PMS_P1;PMS_P2;Temp;Humidity;BMP_temperature;BMP_pressure;BME280_temperature;BME280_humidity;BME280_pressure;Samples;Min_cycle;Max_cycle;Signal;HPM_P1;HPM_P2
2023/05/30 00:00:13;;;;;;;15.18;7.18;;;;;;;;;;5019033;28;20041;-64
2023/05/30 00:02:43;;;;;;;17.85;7.10;;;;;;;;;;5013864;28;20045;-64
2023/05/30 00:05:09;;;;;;;14.13;6.90;;;;;;;;;;5009431;28;20064;-64
2023/05/30 00:07:35;;;;;;;14.15;6.60;;;;;;;;;;5002333;28;20037;-64
2023/05/30 00:10:02;;;;;;;13.27;6.95;;;;;;;;;;5024894;28;20065;-64
2023/05/30 00:12:28;;;;;;;15.82;7.15;;;;;;;;;;5016977;28;20032;-64
2023/05/30 00:14:55;;;;;;;10.75;6.68;;;;;;;;;;5013216;28;20049;-64
2023/05/30 00:17:22;;;;;;;15.13;6.97;;;;;;;;;;5013526;28;20314;-64
2023/05/30 00:19:48;;;;;;;10.60;6.47;;;;;;;;;;5013095;28;20042;-64
2023/05/30 00:22:14;;;;;;;14.65;6.47;;;;;;;;;;5019447;28;20530;-64
2023/05/30 00:24:40;;;;;;;11.55;6.93;;;;;;;;;;5014587;28;20033;-63
2023/05/30 00:27:06;;;;;;;10.40;6.45;;;;;;;;;;5010159;28;20049;-64
2023/05/30 00:29:32;;;;;;;11.32;6.38;;;;;;;;;;5002568;28;20036;-64
2023/05/30 00:31:59;;;;;;;11.82;6.65;;;;;;;;;;5023382;28;20029;-64
2023/05/30 00:34:25;;;;;;;14.05;6.93;;;;;;;;;;5016790;28;20034;-64
2023/05/30 00:36:51;;;;;;;14.35;6.18;;;;;;;;;;5004206;28;20037;-64
2023/05/30 00:39:17;;;;;;;13.98;7.35;;;;;;;;;;5014595;28;20113;-63
2023/05/30 00:41:44;;;;;;;12.10;6.63;;;;;;;;;;4995311;28;20479;-64
2023/05/30 00:44:10;;;;;;;11.75;6.68;;;;;;;;;;4994568;28;20061;-63
2023/05/30 00:46:36;;;;;;;12.85;6.80;;;;;;;;;;5022764;28;20029;-63
2023/05/30 00:49:03;;;;;;;11.50;6.63;;;;;;;;;;5025173;28;20045;-63
2023/05/30 00:51:29;;;;;;;11.23;6.13;;;;;;;;;;5030434;28;20030;-63
2023/05/30 00:53:56;;;;;;;10.85;6.18;;;;;;;;;;5008138;28;20033;-63
2023/05/30 00:56:26;;;;;;;12.87;6.77;;;;;;;;;;5019050;28;20041;-64
2023/05/30 00:58:55;;;;;;;12.50;6.53;;;;;;;;;;5001832;28;20041;-63
2023/05/30 01:01:23;;;;;;;13.48;6.28;;;;;;;;;;5020062;28;20483;-63
2023/05/30 01:03:50;;;;;;;10.73;6.32;;;;;;;;;;5000018;28;20046;-63
2023/05/30 01:06:18;;;;;;;12.15;6.78;;;;;;;;;;5024717;28;20064;-63
2023/05/30 01:08:47;;;;;;;10.85;6.47;;;;;;;;;;5012542;28;20510;-63
2023/05/30 01:11:41;;;;;;;9.63;6.07;;;;;;;;;;4997648;28;20029;-63
2023/05/30 01:14:08;;;;;;;11.48;6.45;;;;;;;;;;4980017;28;20045;-63
2023/05/30 01:16:42;;;;;;;12.48;6.40;;;;;;;;;;5026820;28;20033;-62
2023/05/30 01:19:34;;;;;;;18.30;7.28;;;;;;;;;;5019324;28;20042;-63
2023/05/30 01:22:36;;;;;;;9.27;6.55;;;;;;;;;;5021025;28;20041;-63
2023/05/30 01:25:26;;;;;;;10.05;6.60;;;;;;;;;;4995994;28;20057;-63
2023/05/30 01:28:12;;;;;;;12.43;6.18;;;;;;;;;;5000518;28;20049;-63
2023/05/30 01:30:45;;;;;;;12.23;6.45;;;;;;;;;;5004488;28;20046;-63
2023/05/30 01:33:13;;;;;;;14.93;6.65;;;;;;;;;;5015099;28;20041;-62
2023/05/30 01:35:48;;;;;;;10.32;6.05;;;;;;;;;;5001675;28;20042;-63
2023/05/30 01:38:15;;;;;;;13.32;6.28;;;;;;;;;;5020489;28;20066;-63
2023/05/30 01:40:48;;;;;;;9.52;6.20;;;;;;;;;;5017255;28;20418;-62
2023/05/30 01:43:20;;;;;;;11.63;6.10;;;;;;;;;;5019715;28;20033;-62
2023/05/30 01:46:01;;;;;;;12.95;7.00;;;;;;;;;;5012587;28;20053;-64
2023/05/30 01:48:36;;;;;;;13.98;7.10;;;;;;;;;;4998265;28;20049;-64
2023/05/30 01:51:10;;;;;;;16.95;6.82;;;;;;;;;;5018824;28;20037;-64
2023/05/30 01:53:41;;;;;;;13.30;6.45;;;;;;;;;;5022430;28;20037;-64
2023/05/30 01:56:10;;;;;;;11.13;6.40;;;;;;;;;;5002299;28;20049;-64
2023/05/30 01:58:38;;;;;;;11.55;6.18;;;;;;;;;;5026712;28;20411;-64
2023/05/30 02:01:07;;;;;;;11.20;6.25;;;;;;;;;;4997176;28;20632;-64
2023/05/30 02:03:33;;;;;;;11.52;6.47;;;;;;;;;;5000596;28;20045;-65
2023/05/30 02:06:00;;;;;;;10.70;6.10;;;;;;;;;;4996649;28;20050;-64
2023/05/30 02:08:27;;;;;;;11.13;6.22;;;;;;;;;;4998272;28;20041;-63
2023/05/30 02:10:53;;;;;;;15.88;6.53;;;;;;;;;;4996860;28;20041;-64
2023/05/30 02:13:20;;;;;;;10.63;6.43;;;;;;;;;;4997522;28;20437;-63
2023/05/30 02:15:46;;;;;;;10.73;6.30;;;;;;;;;;5018465;28;20065;-63
2023/05/30 02:18:12;;;;;;;11.43;6.65;;;;;;;;;;5017419;28;20048;-64
2023/05/30 02:20:39;;;;;;;9.52;6.30;;;;;;;;;;5019322;28;20030;-64
2023/05/30 02:23:08;;;;;;;10.75;6.43;;;;;;;;;;5024048;28;20033;-63
2023/05/30 02:25:37;;;;;;;12.25;7.10;;;;;;;;;;4999473;28;20072;-64
2023/05/30 02:28:03;;;;;;;13.07;6.80;;;;;;;;;;5016473;28;20060;-64
2023/05/30 02:30:29;;;;;;;10.15;6.13;;;;;;;;;;5010641;28;20038;-64
2023/05/30 02:32:55;;;;;;;11.32;6.50;;;;;;;;;;4998111;28;20067;-64
2023/05/30 02:35:21;;;;;;;11.60;6.45;;;;;;;;;;5000565;28;20072;-64
2023/05/30 02:37:48;;;;;;;12.13;6.70;;;;;;;;;;5018630;28;20475;-64
2023/05/30 02:40:14;;;;;;;12.88;6.10;;;;;;;;;;5007915;28;20041;-63
2023/05/30 02:42:41;;;;;;;12.90;7.05;;;;;;;;;;5006168;28;20042;-63
2023/05/30 02:45:07;;;;;;;13.30;6.72;;;;;;;;;;4996202;28;20061;-63
2023/05/30 02:47:37;;;;;;;;;;;;;;;;;;4985343;28;20038;-63
2023/05/30 02:50:04;;;;;;;13.45;6.93;;;;;;;;;;5007555;28;20410;-63
2023/05/30 02:52:30;;;;;;;11.43;6.95;;;;;;;;;;4996227;28;20636;-64
2023/05/30 02:54:59;;;;;;;;;;;;;;;;;;4996826;28;20045;-64
2023/05/30 02:57:25;;;;;;;13.15;6.43;;;;;;;;;;5013503;28;19921;-63
2023/05/30 03:00:12;;;;;;;13.75;7.22;;;;;;;;;;4994270;28;20044;-63
2023/05/30 03:02:41;;;;;;;14.27;7.65;;;;;;;;;;5003073;28;20057;-62
2023/05/30 03:05:11;;;;;;;11.82;7.38;;;;;;;;;;4997912;28;20044;-62
2023/05/30 03:07:37;;;;;;;14.80;7.35;;;;;;;;;;5004325;28;20077;-62
2023/05/30 03:10:05;;;;;;;12.30;7.38;;;;;;;;;;5002489;28;20096;-62
2023/05/30 03:12:31;;;;;;;13.18;7.15;;;;;;;;;;5000725;28;20050;-63
2023/05/30 03:14:58;;;;;;;13.02;6.47;;;;;;;;;;4978774;28;20034;-63
2023/05/30 03:17:24;;;;;;;12.25;7.20;;;;;;;;;;4995958;28;20657;-63
2023/05/30 03:19:51;;;;;;;13.95;6.80;;;;;;;;;;4996833;28;20431;-63
2023/05/30 03:22:20;;;;;;;13.38;7.22;;;;;;;;;;4994249;28;20032;-63
2023/05/30 03:24:47;;;;;;;11.90;7.43;;;;;;;;;;5002573;28;20033;-63
2023/05/30 03:27:14;;;;;;;13.32;7.18;;;;;;;;;;4998753;28;20041;-63
2023/05/30 03:29:40;;;;;;;17.70;7.63;;;;;;;;;;5001432;28;20467;-63
2023/05/30 03:32:07;;;;;;;17.88;8.38;;;;;;;;;;5006944;28;20049;-63
2023/05/30 03:34:35;;;;;;;13.98;7.30;;;;;;;;;;4995071;28;20041;-64
2023/05/30 03:37:02;;;;;;;14.73;7.35;;;;;;;;;;5014219;28;20041;-63
2023/05/30 03:39:28;;;;;;;13.18;7.43;;;;;;;;;;4999914;28;20038;-63
2023/05/30 03:41:56;;;;;;;17.95;8.38;;;;;;;;;;4999331;28;20403;-63
2023/05/30 03:44:22;;;;;;;16.20;8.20;;;;;;;;;;4995363;28;20042;-64
2023/05/30 03:46:48;;;;;;;13.13;7.75;;;;;;;;;;5020120;28;20065;-63
2023/05/30 03:49:14;;;;;;;15.55;7.43;;;;;;;;;;5013004;28;20041;-63
2023/05/30 03:51:40;;;;;;;13.52;8.27;;;;;;;;;;5003778;28;20407;-62
2023/05/30 03:54:07;;;;;;;15.80;8.25;;;;;;;;;;5000793;28;20037;-62
2023/05/30 03:56:34;;;;;;;15.00;7.45;;;;;;;;;;5023956;28;20044;-64
2023/05/30 03:59:00;;;;;;;13.95;7.93;;;;;;;;;;5016193;28;20411;-63
2023/05/30 04:01:27;;;;;;;14.73;8.20;;;;;;;;;;4996559;28;20419;-64
2023/05/30 04:03:53;;;;;;;13.68;7.78;;;;;;;;;;5021255;28;20057;-63
2023/05/30 04:06:21;;;;;;;15.07;7.80;;;;;;;;;;4995178;28;20041;-63
2023/05/30 04:08:47;;;;;;;15.20;8.20;;;;;;;;;;4992575;28;20042;-63
2023/05/30 04:11:16;;;;;;;16.23;8.73;;;;;;;;;;4997015;28;20048;-63
2023/05/30 04:13:42;;;;;;;14.50;8.50;;;;;;;;;;5015132;28;20029;-63
2023/05/30 04:16:08;;;;;;;16.05;8.20;;;;;;;;;;4994706;28;20048;-64
2023/05/30 04:18:40;;;;;;;15.73;8.90;;;;;;;;;;5001598;28;20054;-62
2023/05/30 04:21:07;;;;;;;15.50;9.57;;;;;;;;;;4982451;28;20026;-63
2023/05/30 04:23:33;;;;;;;16.20;9.30;;;;;;;;;;4997490;28;20037;-63
2023/05/30 04:26:01;;;;;;;14.77;8.80;;;;;;;;;;5024355;28;20387;-62
2023/05/30 04:28:27;;;;;;;16.83;8.50;;;;;;;;;;5000039;28;20040;-62
2023/05/30 04:30:54;;;;;;;18.00;8.18;;;;;;;;;;5018267;28;20049;-62
2023/05/30 04:33:20;;;;;;;16.88;8.80;;;;;;;;;;5003110;28;20040;-62
2023/05/30 04:35:48;;;;;;;18.23;8.98;;;;;;;;;;5004235;28;20045;-62
2023/05/30 04:38:20;;;;;;;19.98;9.40;;;;;;;;;;4982641;28;20395;-62
2023/05/30 04:40:50;;;;;;;15.65;8.48;;;;;;;;;;5004524;28;20427;-62
2023/05/30 04:43:19;;;;;;;16.08;9.05;;;;;;;;;;4999926;28;20040;-62
2023/05/30 04:45:49;;;;;;;16.10;8.48;;;;;;;;;;5002777;28;20040;-62
2023/05/30 04:48:15;;;;;;;;;;;;;;;;;;5002524;28;20056;-63
2023/05/30 04:50:46;;;;;;;14.80;8.50;;;;;;;;;;5005111;28;19940;-62
2023/05/30 04:53:15;;;;;;;15.20;9.40;;;;;;;;;;5022536;28;20414;-62
2023/05/30 04:55:45;;;;;;;16.10;9.45;;;;;;;;;;5001526;28;20056;-62
2023/05/30 04:58:11;;;;;;;19.23;9.50;;;;;;;;;;4998466;28;20053;-63
2023/05/30 05:00:38;;;;;;;21.73;9.65;;;;;;;;;;4980372;28;20578;-63
2023/05/30 05:03:05;;;;;;;20.25;9.50;;;;;;;;;;5021095;28;20493;-62
2023/05/30 05:05:33;;;;;;;18.88;10.48;;;;;;;;;;5017237;28;20491;-63
2023/05/30 05:07:59;;;;;;;18.55;10.18;;;;;;;;;;5020820;28;20048;-60
2023/05/30 05:10:26;;;;;;;21.75;10.40;;;;;;;;;;5013676;28;20042;-60
2023/05/30 05:12:52;;;;;;;19.65;10.20;;;;;;;;;;5019286;28;20361;-59
2023/05/30 05:15:18;;;;;;;21.13;10.13;;;;;;;;;;5017987;28;20037;-60
2023/05/30 05:17:45;;;;;;;16.15;10.07;;;;;;;;;;5024146;28;20823;-60
2023/05/30 05:20:12;;;;;;;18.65;10.25;;;;;;;;;;5021250;28;20407;-60
2023/05/30 05:22:38;;;;;;;19.73;10.63;;;;;;;;;;5023884;28;20105;-59
2023/05/30 05:25:05;;;;;;;20.55;11.00;;;;;;;;;;5025993;28;20045;-61
2023/05/30 05:27:31;;;;;;;19.98;10.38;;;;;;;;;;5024691;28;20045;-60
2023/05/30 05:29:57;;;;;;;26.33;10.80;;;;;;;;;;5025212;28;20438;-61
2023/05/30 05:32:23;;;;;;;26.77;11.32;;;;;;;;;;5021384;28;20041;-60
2023/05/30 05:34:49;;;;;;;21.63;11.18;;;;;;;;;;5016972;28;20046;-61
2023/05/30 05:37:15;;;;;;;21.80;11.02;;;;;;;;;;5020763;28;20032;-61
2023/05/30 05:39:41;;;;;;;26.60;13.18;;;;;;;;;;5014873;28;20040;-61
2023/05/30 05:42:07;;;;;;;24.30;11.73;;;;;;;;;;5021862;28;20049;-60
2023/05/30 05:44:34;;;;;;;22.90;11.77;;;;;;;;;;5027450;28;20399;-61
2023/05/30 05:47:00;;;;;;;22.00;10.75;;;;;;;;;;5003332;28;20048;-60
2023/05/30 05:49:26;;;;;;;23.38;11.40;;;;;;;;;;5020910;28;20040;-60
2023/05/30 05:51:53;;;;;;;24.27;11.55;;;;;;;;;;5007179;28;20041;-61
2023/05/30 05:54:19;;;;;;;23.77;11.07;;;;;;;;;;4995055;28;20064;-61
2023/05/30 05:56:45;;;;;;;22.75;11.95;;;;;;;;;;5002110;28;20044;-60
2023/05/30 05:59:12;;;;;;;25.05;11.45;;;;;;;;;;5021683;28;20041;-60
2023/05/30 06:01:39;;;;;;;22.95;11.68;;;;;;;;;;5016823;28;20045;-60
2023/05/30 06:04:11;;;;;;;26.42;12.07;;;;;;;;;;5019521;28;20041;-60
2023/05/30 06:06:37;;;;;;;26.45;11.50;;;;;;;;;;5016214;28;20423;-60
2023/05/30 06:09:04;;;;;;;25.75;11.48;;;;;;;;;;5012529;28;20036;-61
2023/05/30 06:11:30;;;;;;;22.77;11.30;;;;;;;;;;5009806;28;20058;-61
2023/05/30 06:13:56;;;;;;;21.17;10.68;;;;;;;;;;5019930;28;20030;-61
2023/05/30 06:16:22;;;;;;;25.90;11.52;;;;;;;;;;5021520;28;20053;-61
2023/05/30 06:18:48;;;;;;;23.35;11.13;;;;;;;;;;5015564;28;20041;-59
2023/05/30 06:21:14;;;;;;;21.20;10.23;;;;;;;;;;5012123;28;20639;-60
2023/05/30 06:23:40;;;;;;;25.70;11.02;;;;;;;;;;5019666;28;20056;-61
2023/05/30 06:26:07;;;;;;;26.23;10.38;;;;;;;;;;5023864;28;20086;-60
2023/05/30 06:28:33;;;;;;;28.23;11.75;;;;;;;;;;5018403;28;20036;-60
2023/05/30 06:30:59;;;;;;;25.73;10.98;;;;;;;;;;5022119;28;20036;-59
2023/05/30 06:33:25;;;;;;;26.00;11.05;;;;;;;;;;5013085;28;20061;-60
2023/05/30 06:35:51;;;;;;;29.35;10.80;;;;;;;;;;5026954;28;20053;-60
2023/05/30 06:38:19;;;;;;;22.70;10.43;;;;;;;;;;5023010;28;20041;-61
2023/05/30 06:40:46;;;;;;;27.25;9.98;;;;;;;;;;5016327;28;20050;-62
2023/05/30 06:43:12;;;;;;;20.63;10.13;;;;;;;;;;5014281;28;20057;-60
2023/05/30 06:45:38;;;;;;;27.98;10.45;;;;;;;;;;4996255;28;20056;-60
2023/05/30 06:48:04;;;;;;;21.20;10.00;;;;;;;;;;5010631;28;20061;-60
2023/05/30 06:50:31;;;;;;;28.17;11.02;;;;;;;;;;5012139;28;20054;-60
2023/05/30 06:52:57;;;;;;;26.33;10.18;;;;;;;;;;5001676;28;20391;-60
2023/05/30 06:55:23;;;;;;;23.77;10.45;;;;;;;;;;4992543;28;20056;-60
2023/05/30 06:57:56;;;;;;;27.83;11.80;;;;;;;;;;5015647;28;20041;-61
2023/05/30 07:00:22;;;;;;;27.30;10.85;;;;;;;;;;5008793;28;20034;-61
2023/05/30 07:02:50;;;;;;;20.05;10.10;;;;;;;;;;5016563;28;20426;-60
2023/05/30 07:05:16;;;;;;;29.25;10.00;;;;;;;;;;5018212;28;20434;-60
2023/05/30 07:07:43;;;;;;;23.45;9.43;;;;;;;;;;5020851;28;20077;-61
2023/05/30 07:10:09;;;;;;;18.88;9.75;;;;;;;;;;5019922;28;20033;-60
2023/05/30 07:12:36;;;;;;;28.65;10.80;;;;;;;;;;5014325;28;20046;-60
2023/05/30 07:15:02;;;;;;;21.90;10.38;;;;;;;;;;5016971;28;20500;-60
2023/05/30 07:17:29;;;;;;;25.38;9.88;;;;;;;;;;5018984;28;20053;-60
2023/05/30 07:19:55;;;;;;;28.23;10.02;;;;;;;;;;5014529;28;20376;-59
2023/05/30 07:22:21;;;;;;;26.58;10.35;;;;;;;;;;5012334;28;20048;-60
2023/05/30 07:24:47;;;;;;;23.88;9.48;;;;;;;;;;5018470;28;20450;-59
2023/05/30 07:27:14;;;;;;;27.52;12.02;;;;;;;;;;5016234;28;20045;-60
2023/05/30 07:29:40;;;;;;;19.55;10.00;;;;;;;;;;5018525;28;20061;-60
2023/05/30 07:32:07;;;;;;;27.70;11.10;;;;;;;;;;5019407;28;20518;-59
2023/05/30 07:34:33;;;;;;;27.58;11.07;;;;;;;;;;5019936;28;20038;-58
2023/05/30 07:36:59;;;;;;;25.23;9.85;;;;;;;;;;5022441;28;20032;-59
2023/05/30 07:39:25;;;;;;;25.45;9.85;;;;;;;;;;5002179;28;20037;-60
2023/05/30 07:41:51;;;;;;;23.67;10.23;;;;;;;;;;5012116;28;20042;-60
2023/05/30 07:44:17;;;;;;;26.45;11.18;;;;;;;;;;5018099;28;20049;-59
2023/05/30 07:46:43;;;;;;;20.65;9.80;;;;;;;;;;5023880;28;20045;-62
2023/05/30 07:49:10;;;;;;;24.45;10.40;;;;;;;;;;5017834;28;20041;-60
2023/05/30 07:51:36;;;;;;;26.20;10.15;;;;;;;;;;5017579;28;20033;-61
2023/05/30 07:54:02;;;;;;;22.90;10.23;;;;;;;;;;5012683;28;20042;-61
2023/05/30 07:56:28;;;;;;;21.77;9.90;;;;;;;;;;4997313;28;20033;-61
2023/05/30 07:58:54;;;;;;;23.20;10.32;;;;;;;;;;5016645;28;20435;-60
2023/05/30 08:01:21;;;;;;;22.85;9.70;;;;;;;;;;5004303;28;20041;-61
2023/05/30 08:03:47;;;;;;;27.08;9.93;;;;;;;;;;5015715;28;20041;-60
2023/05/30 08:06:13;;;;;;;24.05;9.93;;;;;;;;;;5026540;28;20036;-60
2023/05/30 08:08:40;;;;;;;24.88;10.23;;;;;;;;;;5017118;28;20030;-60
2023/05/30 08:11:06;;;;;;;25.08;9.80;;;;;;;;;;5015692;28;20038;-61
2023/05/30 08:13:32;;;;;;;25.45;10.10;;;;;;;;;;5015954;28;20038;-61
2023/05/30 08:15:58;;;;;;;24.17;9.88;;;;;;;;;;5011168;28;20041;-61
2023/05/30 08:18:24;;;;;;;23.67;10.32;;;;;;;;;;5018596;28;20491;-61
2023/05/30 08:20:54;;;;;;;23.70;9.88;;;;;;;;;;5022758;28;20038;-61
2023/05/30 08:23:20;;;;;;;26.30;10.48;;;;;;;;;;4995791;28;20030;-60
2023/05/30 08:25:46;;;;;;;26.35;10.32;;;;;;;;;;4981144;28;20644;-60
2023/05/30 08:28:12;;;;;;;28.00;10.30;;;;;;;;;;5018749;28;20399;-60
2023/05/30 08:30:40;;;;;;;23.45;9.82;;;;;;;;;;5014561;28;20041;-59
2023/05/30 08:33:10;;;;;;;28.05;10.00;;;;;;;;;;5018613;28;20045;-61
2023/05/30 08:35:36;;;;;;;22.80;9.30;;;;;;;;;;5014353;28;20041;-60
2023/05/30 08:38:02;;;;;;;23.73;10.77;;;;;;;;;;5021471;28;20064;-60
2023/05/30 08:40:29;;;;;;;32.13;11.30;;;;;;;;;;5019875;28;20398;-58
2023/05/30 08:42:55;;;;;;;34.78;10.50;;;;;;;;;;5007097;28;20033;-61
2023/05/30 08:45:22;;;;;;;31.02;10.32;;;;;;;;;;5012308;28;20064;-60
2023/05/30 08:47:54;;;;;;;29.00;10.30;;;;;;;;;;5009567;28;20057;-59
2023/05/30 08:50:21;;;;;;;20.38;10.40;;;;;;;;;;5011710;28;20034;-60
2023/05/30 08:52:52;;;;;;;23.27;10.30;;;;;;;;;;5014258;28;20034;-59
2023/05/30 08:55:31;;;;;;;25.60;10.65;;;;;;;;;;5021664;28;20056;-61
2023/05/30 08:58:04;;;;;;;23.42;10.18;;;;;;;;;;5013539;28;20034;-60
2023/05/30 09:00:32;;;;;;;24.13;10.15;;;;;;;;;;5011969;28;20042;-61
2023/05/30 09:02:59;;;;;;;19.27;10.35;;;;;;;;;;5019660;28;20045;-60
2023/05/30 09:05:26;;;;;;;24.55;9.80;;;;;;;;;;5015407;28;20034;-61
2023/05/30 09:07:53;;;;;;;23.95;10.35;;;;;;;;;;5019016;28;20068;-61
2023/05/30 09:10:19;;;;;;;20.38;9.43;;;;;;;;;;5014577;28;20034;-61
2023/05/30 09:12:45;;;;;;;24.33;10.77;;;;;;;;;;5027124;28;20500;-61
2023/05/30 09:15:12;;;;;;;22.50;10.35;;;;;;;;;;5022125;28;20396;-61
2023/05/30 09:17:38;;;;;;;24.75;10.45;;;;;;;;;;5013065;28;20042;-60
2023/05/30 09:20:07;;;;;;;22.50;10.23;;;;;;;;;;5020093;28;20048;-60
2023/05/30 09:22:34;;;;;;;23.02;10.65;;;;;;;;;;5015854;28;20399;-61
2023/05/30 09:25:02;;;;;;;32.42;9.95;;;;;;;;;;5024567;28;20056;-61
2023/05/30 09:27:35;;;;;;;16.75;9.10;;;;;;;;;;5014780;28;20045;-61
2023/05/30 09:30:09;;;;;;;24.83;10.73;;;;;;;;;;5025262;28;20451;-61
2023/05/30 09:32:36;;;;;;;34.22;10.65;;;;;;;;;;5018882;28;20057;-60
2023/05/30 09:35:10;;;;;;;21.77;10.05;;;;;;;;;;5012487;28;20058;-61
2023/05/30 09:37:36;;;;;;;27.98;10.82;;;;;;;;;;5015683;28;20041;-61
2023/05/30 09:40:07;;;;;;;27.45;10.98;;;;;;;;;;5006573;28;20049;-61
2023/05/30 09:42:43;;;;;;;23.98;10.43;;;;;;;;;;5025983;28;20064;-60
2023/05/30 09:45:14;;;;;;;23.48;11.18;;;;;;;;;;5019816;28;20488;-60
2023/05/30 09:47:47;;;;;;;22.48;9.68;;;;;;;;;;5017654;28;20128;-61
2023/05/30 09:50:18;;;;;;;26.38;9.98;;;;;;;;;;5014752;28;20050;-60
2023/05/30 09:52:45;;;;;;;27.80;10.80;;;;;;;;;;5018033;28;20045;-61
2023/05/30 09:55:15;;;;;;;29.23;12.52;;;;;;;;;;5025720;28;20050;-61
2023/05/30 09:57:52;;;;;;;21.75;10.55;;;;;;;;;;4998980;28;20030;-60
2023/05/30 10:00:23;;;;;;;23.70;10.55;;;;;;;;;;5012606;28;20400;-61
2023/05/30 10:02:54;;;;;;;25.10;10.50;;;;;;;;;;5022150;28;20148;-61
2023/05/30 10:05:28;;;;;;;24.05;10.50;;;;;;;;;;5018193;28;20121;-61
2023/05/30 10:07:56;;;;;;;28.27;11.10;;;;;;;;;;5016139;28;20037;-61
2023/05/30 10:10:23;;;;;;;23.70;11.23;;;;;;;;;;5023634;28;20033;-61
2023/05/30 10:12:54;;;;;;;26.08;11.10;;;;;;;;;;5015142;28;20431;-60
2023/05/30 10:15:23;;;;;;;27.20;12.82;;;;;;;;;;5019892;28;20057;-61
2023/05/30 10:17:55;;;;;;;26.80;11.20;;;;;;;;;;5015042;28;20497;-60
2023/05/30 10:20:25;;;;;;;20.23;9.38;;;;;;;;;;5018904;28;20046;-61
2023/05/30 10:22:53;;;;;;;20.20;9.48;;;;;;;;;;5025716;28;20055;-61
2023/05/30 10:25:20;;;;;;;19.08;9.02;;;;;;;;;;5001766;28;20058;-61
2023/05/30 10:27:55;;;;;;;19.10;9.32;;;;;;;;;;5021579;28;20108;-60
2023/05/30 10:30:25;;;;;;;20.42;9.23;;;;;;;;;;5021231;28;20050;-61
2023/05/30 10:33:08;;;;;;;20.77;10.30;;;;;;;;;;5025047;28;20030;-61
2023/05/30 10:35:35;;;;;;;20.15;9.88;;;;;;;;;;5021846;28;20080;-60
2023/05/30 10:38:04;;;;;;;20.40;9.57;;;;;;;;;;5016959;28;20057;-61
2023/05/30 10:40:30;;;;;;;;;;;;;;;;;;5016061;28;20045;-62
2023/05/30 10:43:35;;;;;;;18.00;9.05;;;;;;;;;;5013955;28;19921;-62
2023/05/30 10:46:04;;;;;;;18.25;8.52;;;;;;;;;;5014592;28;20052;-62
2023/05/30 10:48:58;;;;;;;19.75;8.90;;;;;;;;;;5011239;28;20037;-62
2023/05/30 10:51:24;;;;;;;19.00;8.88;;;;;;;;;;5018728;28;20045;-61
2023/05/30 10:53:51;;;;;;;19.25;9.32;;;;;;;;;;5013292;28;20045;-62
2023/05/30 10:56:40;;;;;;;17.92;9.35;;;;;;;;;;4996667;28;20109;-62
2023/05/30 10:59:14;;;;;;;23.33;8.52;;;;;;;;;;5020519;28;20037;-61
2023/05/30 11:01:40;;;;;;;20.58;9.10;;;;;;;;;;5001413;28;20037;-62
2023/05/30 11:04:13;;;;;;;19.95;8.55;;;;;;;;;;5019217;28;20053;-61
2023/05/30 11:06:47;;;;;;;18.35;8.38;;;;;;;;;;5012824;28;20038;-62
2023/05/30 11:09:17;;;;;;;16.95;8.23;;;;;;;;;;5015179;28;20038;-62
2023/05/30 11:11:46;;;;;;;16.02;8.52;;;;;;;;;;5012445;28;20407;-62
2023/05/30 11:14:14;;;;;;;21.80;8.52;;;;;;;;;;5016276;28;20045;-62
2023/05/30 11:16:47;;;;;;;18.38;8.80;;;;;;;;;;5012036;28;20042;-62
2023/05/30 11:19:14;;;;;;;19.58;8.93;;;;;;;;;;5015239;28;20033;-63
2023/05/30 11:21:57;;;;;;;17.02;9.15;;;;;;;;;;5016560;28;20040;-62
2023/05/30 11:24:24;;;;;;;13.73;7.85;;;;;;;;;;5024776;28;20414;-62
2023/05/30 11:27:00;;;;;;;18.77;8.30;;;;;;;;;;5013343;28;20040;-63
2023/05/30 11:29:33;;;;;;;16.35;7.93;;;;;;;;;;4996791;28;20046;-62
2023/05/30 11:32:00;;;;;;;17.63;7.95;;;;;;;;;;4997110;28;20352;-62
2023/05/30 11:34:27;;;;;;;19.20;8.55;;;;;;;;;;5018666;28;20065;-62
2023/05/30 11:36:55;;;;;;;20.30;8.20;;;;;;;;;;5013735;28;20050;-62
2023/05/30 11:39:21;;;;;;;15.93;7.77;;;;;;;;;;5016273;28;20057;-63
2023/05/30 11:41:48;;;;;;;17.08;7.90;;;;;;;;;;5020650;28;20057;-63
2023/05/30 11:44:16;;;;;;;18.08;8.57;;;;;;;;;;5011909;28;20026;-63
2023/05/30 11:46:42;;;;;;;18.20;7.93;;;;;;;;;;5022673;28;20512;-63
2023/05/30 11:49:08;;;;;;;19.67;7.75;;;;;;;;;;5015239;28;20033;-63
2023/05/30 11:51:37;;;;;;;18.42;7.38;;;;;;;;;;5021554;28;20045;-63
2023/05/30 11:54:06;;;;;;;18.30;7.10;;;;;;;;;;5019771;28;20061;-63
2023/05/30 11:56:32;;;;;;;17.92;7.60;;;;;;;;;;5015938;28;20038;-63
2023/05/30 11:58:58;;;;;;;17.35;7.40;;;;;;;;;;5019672;28;20038;-63
2023/05/30 12:01:25;;;;;;;14.07;6.82;;;;;;;;;;5018519;28;20034;-63
2023/05/30 12:03:53;;;;;;;14.13;6.90;;;;;;;;;;5017078;28;20475;-63
2023/05/30 12:06:19;;;;;;;17.05;6.53;;;;;;;;;;5013071;28;20053;-62
2023/05/30 12:08:46;;;;;;;18.90;7.07;;;;;;;;;;5015153;28;20065;-63
2023/05/30 12:11:13;;;;;;;15.88;6.95;;;;;;;;;;5022728;28;20053;-63
2023/05/30 12:13:39;;;;;;;16.77;6.90;;;;;;;;;;5017408;28;20030;-63
2023/05/30 12:16:06;;;;;;;16.38;7.55;;;;;;;;;;5011509;28;20049;-63
2023/05/30 12:18:33;;;;;;;17.40;6.80;;;;;;;;;;5018018;28;20055;-63
2023/05/30 12:21:02;;;;;;;12.55;6.72;;;;;;;;;;5008579;28;20438;-63
2023/05/30 12:23:29;;;;;;;15.25;6.95;;;;;;;;;;5017914;28;20038;-63
2023/05/30 12:25:55;;;;;;;19.00;7.55;;;;;;;;;;5024565;28;20048;-63
2023/05/30 12:28:22;;;;;;;19.83;7.20;;;;;;;;;;5011804;28;20049;-63
2023/05/30 12:30:52;;;;;;;17.13;7.00;;;;;;;;;;5021409;28;20030;-63
2023/05/30 12:33:19;;;;;;;16.60;7.65;;;;;;;;;;5001835;28;20050;-64
2023/05/30 12:35:46;;;;;;;16.25;7.18;;;;;;;;;;5016822;28;20052;-63
2023/05/30 12:38:18;;;;;;;12.18;6.20;;;;;;;;;;5016736;28;20049;-63
2023/05/30 12:40:50;;;;;;;14.55;7.45;;;;;;;;;;5012222;28;20061;-63
2023/05/30 12:43:29;;;;;;;13.68;6.65;;;;;;;;;;5017373;28;20033;-63
2023/05/30 12:46:00;;;;;;;15.27;6.78;;;;;;;;;;5022876;28;20506;-64
2023/05/30 12:48:26;;;;;;;12.45;6.85;;;;;;;;;;5020989;28;20029;-63
2023/05/30 12:50:52;;;;;;;14.07;6.88;;;;;;;;;;5015568;28;20037;-63
2023/05/30 12:53:18;;;;;;;12.45;6.85;;;;;;;;;;5014700;28;20057;-63
2023/05/30 12:55:44;;;;;;;14.80;6.68;;;;;;;;;;5021094;28;20378;-64
2023/05/30 12:58:11;;;;;;;11.23;6.43;;;;;;;;;;5012717;28;20050;-63
2023/05/30 13:00:37;;;;;;;17.90;7.00;;;;;;;;;;5017921;28;20037;-63
2023/05/30 13:03:03;;;;;;;14.63;6.63;;;;;;;;;;5021089;28;20411;-64
2023/05/30 13:05:30;;;;;;;14.07;6.97;;;;;;;;;;5024170;28;20092;-64
2023/05/30 13:07:56;;;;;;;12.63;6.63;;;;;;;;;;5014193;28;20037;-64
2023/05/30 13:10:22;;;;;;;13.60;6.75;;;;;;;;;;5017273;28;20038;-63
2023/05/30 13:12:48;;;;;;;19.65;6.65;;;;;;;;;;5019175;28;20038;-64
2023/05/30 13:15:14;;;;;;;16.15;6.93;;;;;;;;;;5009931;28;20041;-63
2023/05/30 13:17:41;;;;;;;13.50;7.20;;;;;;;;;;5013129;28;20053;-64
2023/05/30 13:20:07;;;;;;;14.43;6.40;;;;;;;;;;5019032;28;20061;-64
2023/05/30 13:22:33;;;;;;;14.02;7.20;;;;;;;;;;5024399;28;20033;-63
2023/05/30 13:24:59;;;;;;;11.80;5.95;;;;;;;;;;5001108;28;20052;-63
2023/05/30 13:27:25;;;;;;;15.77;7.10;;;;;;;;;;5020893;28;20041;-63
2023/05/30 13:29:52;;;;;;;15.82;7.03;;;;;;;;;;5016524;28;20040;-63
2023/05/30 13:32:18;;;;;;;11.73;6.65;;;;;;;;;;5004043;28;20372;-64
2023/05/30 13:34:44;;;;;;;14.07;7.10;;;;;;;;;;5015711;28;20508;-63
2023/05/30 13:37:10;;;;;;;18.42;7.05;;;;;;;;;;5014999;28;20048;-62
2023/05/30 13:39:37;;;;;;;13.23;6.57;;;;;;;;;;5024846;28;20038;-62
2023/05/30 13:42:05;;;;;;;15.88;6.70;;;;;;;;;;5027177;28;20061;-64
2023/05/30 13:44:31;;;;;;;17.98;6.60;;;;;;;;;;5016819;28;20029;-65
2023/05/30 13:46:57;;;;;;;12.13;6.60;;;;;;;;;;5020793;28;20403;-64
2023/05/30 13:49:32;;;;;;;11.63;6.45;;;;;;;;;;5012672;28;20054;-64
2023/05/30 13:52:00;;;;;;;17.80;6.65;;;;;;;;;;5016860;28;20030;-64
2023/05/30 13:54:26;;;;;;;12.98;6.63;;;;;;;;;;5024464;28;20046;-63
2023/05/30 13:56:52;;;;;;;15.98;6.90;;;;;;;;;;5020963;28;20033;-64
2023/05/30 13:59:18;;;;;;;10.32;6.00;;;;;;;;;;5015337;28;20029;-64
2023/05/30 14:01:46;;;;;;;13.77;7.47;;;;;;;;;;5017009;28;20037;-64
2023/05/30 14:04:12;;;;;;;14.38;6.97;;;;;;;;;;5021197;28;20038;-64
2023/05/30 14:06:38;;;;;;;11.55;6.35;;;;;;;;;;5005450;28;20099;-63
2023/05/30 14:09:04;;;;;;;16.95;7.30;;;;;;;;;;5022658;28;20046;-64
2023/05/30 14:11:31;;;;;;;14.00;6.53;;;;;;;;;;5024152;28;20044;-64
2023/05/30 14:13:58;;;;;;;12.75;6.53;;;;;;;;;;5011487;28;20050;-64
2023/05/30 14:16:24;;;;;;;14.10;6.90;;;;;;;;;;5014067;28;20423;-64
2023/05/30 14:18:50;;;;;;;9.82;5.95;;;;;;;;;;5007182;28;20037;-64
2023/05/30 14:21:16;;;;;;;13.02;6.40;;;;;;;;;;5016513;28;20060;-64
2023/05/30 14:23:42;;;;;;;12.25;6.32;;;;;;;;;;5020575;28;20025;-64
2023/05/30 14:26:09;;;;;;;15.75;6.65;;;;;;;;;;5016700;28;20056;-64
2023/05/30 14:28:36;;;;;;;14.95;6.68;;;;;;;;;;5021701;28;20037;-64
2023/05/30 14:31:03;;;;;;;17.37;6.37;;;;;;;;;;5019489;28;20053;-64
2023/05/30 14:33:29;;;;;;;11.45;6.30;;;;;;;;;;5018923;28;20316;-64